sensor_id;sensor_type;location;lat;lon;timestamp;P1;durP1;ratioP1;P2;durP2;ratioP2
51738;SDS011;37815;52.692;6.226;2022-12-18T00:04:07;32.63;;;12.60;;
51738;SDS011;37815;52.692;6.226;2022-12-18T00:09:15;31.60;;;11.47;;
51738;SDS011;37815;52.692;6.226;2022-12-18T00:14:16;34.33;;;12.02;;
51738;SDS011;37815;52.692;6.226;2022-12-18T00:19:16;30.13;;;11.48;;
51738;SDS011;37815;52.692;6.226;2022-12-18T00:24:17;33.55;;;12.63;;
51738;SDS011;37815;52.692;6.226;2022-12-18T00:29:18;38.08;;;12.32;;
51738;SDS011;37815;52.692;6.226;2022-12-18T00:34:19;28.67;;;11.30;;
51738;SDS011;37815;52.692;6.226;2022-12-18T00:39:19;33.30;;;12.45;;
51738;SDS011;37815;52.692;6.226;2022-12-18T00:44:20;39.80;;;12.65;;
51738;SDS011;37815;52.692;6.226;2022-12-18T00:49:21;35.90;;;11.82;;
51738;SDS011;37815;52.692;6.226;2022-12-18T00:54:22;35.40;;;12.60;;
51738;SDS011;37815;52.692;6.226;2022-12-18T00:59:22;31.73;;;11.70;;
51738;SDS011;37815;52.692;6.226;2022-12-18T01:04:23;33.33;;;12.68;;
51738;SDS011;37815;52.692;6.226;2022-12-18T01:09:24;34.58;;;12.52;;
51738;SDS011;37815;52.692;6.226;2022-12-18T01:14:24;34.45;;;13.95;;
51738;SDS011;37815;52.692;6.226;2022-12-18T01:19:25;32.38;;;12.63;;
51738;SDS011;37815;52.692;6.226;2022-12-18T01:24:25;31.83;;;11.27;;
51738;SDS011;37815;52.692;6.226;2022-12-18T01:29:26;35.60;;;12.88;;
51738;SDS011;37815;52.692;6.226;2022-12-18T01:34:27;34.17;;;12.23;;
51738;SDS011;37815;52.692;6.226;2022-12-18T01:39:27;34.40;;;12.48;;
51738;SDS011;37815;52.692;6.226;2022-12-18T01:49:47;32.25;;;11.32;;
51738;SDS011;37815;52.692;6.226;2022-12-18T01:54:49;31.63;;;12.50;;
51738;SDS011;37815;52.692;6.226;2022-12-18T01:59:52;33.47;;;12.15;;
51738;SDS011;37815;52.692;6.226;2022-12-18T02:04:55;35.05;;;12.73;;
51738;SDS011;37815;52.692;6.226;2022-12-18T02:10:00;28.90;;;11.65;;
51738;SDS011;37815;52.692;6.226;2022-12-18T02:15:17;35.22;;;11.75;;
51738;SDS011;37815;52.692;6.226;2022-12-18T02:20:27;33.95;;;11.85;;
51738;SDS011;37815;52.692;6.226;2022-12-18T02:30:59;32.15;;;12.02;;
51738;SDS011;37815;52.692;6.226;2022-12-18T02:36:03;34.15;;;12.80;;
51738;SDS011;37815;52.692;6.226;2022-12-18T02:41:06;31.58;;;12.15;;
51738;SDS011;37815;52.692;6.226;2022-12-18T02:51:50;36.97;;;13.70;;
51738;SDS011;37815;52.692;6.226;2022-12-18T02:56:53;29.48;;;12.15;;
51738;SDS011;37815;52.692;6.226;2022-12-18T03:07:20;27.92;;;11.00;;
51738;SDS011;37815;52.692;6.226;2022-12-18T03:12:29;31.55;;;11.68;;
51738;SDS011;37815;52.692;6.226;2022-12-18T03:17:32;28.58;;;11.18;;
51738;SDS011;37815;52.692;6.226;2022-12-18T03:22:34;33.03;;;12.02;;
51738;SDS011;37815;52.692;6.226;2022-12-18T03:27:38;35.25;;;11.20;;
51738;SDS011;37815;52.692;6.226;2022-12-18T03:32:50;27.90;;;11.80;;
51738;SDS011;37815;52.692;6.226;2022-12-18T03:38:02;32.10;;;10.63;;
51738;SDS011;37815;52.692;6.226;2022-12-18T03:43:05;29.33;;;10.10;;
51738;SDS011;37815;52.692;6.226;2022-12-18T03:48:24;34.13;;;12.25;;
51738;SDS011;37815;52.692;6.226;2022-12-18T03:58:47;26.50;;;10.15;;
51738;SDS011;37815;52.692;6.226;2022-12-18T04:03:50;32.65;;;11.77;;
51738;SDS011;37815;52.692;6.226;2022-12-18T04:08:52;24.15;;;10.27;;
51738;SDS011;37815;52.692;6.226;2022-12-18T04:13:55;27.05;;;10.18;;
51738;SDS011;37815;52.692;6.226;2022-12-18T04:18:57;29.48;;;10.90;;
51738;SDS011;37815;52.692;6.226;2022-12-18T04:23:58;25.27;;;10.15;;
51738;SDS011;37815;52.692;6.226;2022-12-18T04:28:58;24.80;;;9.18;;
51738;SDS011;37815;52.692;6.226;2022-12-18T04:33:59;30.05;;;10.77;;
51738;SDS011;37815;52.692;6.226;2022-12-18T04:38:59;27.42;;;10.30;;
51738;SDS011;37815;52.692;6.226;2022-12-18T04:44:00;28.38;;;11.10;;
51738;SDS011;37815;52.692;6.226;2022-12-18T04:49:01;25.42;;;9.57;;
51738;SDS011;37815;52.692;6.226;2022-12-18T04:54:02;27.60;;;10.48;;
51738;SDS011;37815;52.692;6.226;2022-12-18T04:59:02;22.52;;;9.57;;
51738;SDS011;37815;52.692;6.226;2022-12-18T05:04:03;24.42;;;10.43;;
51738;SDS011;37815;52.692;6.226;2022-12-18T05:09:04;23.45;;;9.63;;
51738;SDS011;37815;52.692;6.226;2022-12-18T05:14:04;24.17;;;9.02;;
51738;SDS011;37815;52.692;6.226;2022-12-18T05:19:05;25.35;;;10.05;;
51738;SDS011;37815;52.692;6.226;2022-12-18T05:24:06;26.25;;;8.85;;
51738;SDS011;37815;52.692;6.226;2022-12-18T05:29:06;22.95;;;9.15;;
51738;SDS011;37815;52.692;6.226;2022-12-18T05:34:07;20.15;;;8.73;;
51738;SDS011;37815;52.692;6.226;2022-12-18T05:39:08;22.55;;;9.05;;
51738;SDS011;37815;52.692;6.226;2022-12-18T05:44:08;22.10;;;9.23;;
51738;SDS011;37815;52.692;6.226;2022-12-18T05:49:09;22.17;;;8.07;;
51738;SDS011;37815;52.692;6.226;2022-12-18T05:54:10;22.50;;;8.30;;
51738;SDS011;37815;52.692;6.226;2022-12-18T05:59:11;28.38;;;10.23;;
51738;SDS011;37815;52.692;6.226;2022-12-18T06:04:11;25.77;;;9.00;;
51738;SDS011;37815;52.692;6.226;2022-12-18T06:09:12;19.65;;;8.13;;
51738;SDS011;37815;52.692;6.226;2022-12-18T06:14:12;19.75;;;8.00;;
51738;SDS011;37815;52.692;6.226;2022-12-18T06:19:14;18.58;;;8.27;;
51738;SDS011;37815;52.692;6.226;2022-12-18T06:24:15;21.40;;;8.20;;
51738;SDS011;37815;52.692;6.226;2022-12-18T06:29:16;20.05;;;7.82;;
51738;SDS011;37815;52.692;6.226;2022-12-18T06:34:17;26.45;;;9.35;;
51738;SDS011;37815;52.692;6.226;2022-12-18T06:39:17;21.90;;;8.02;;
51738;SDS011;37815;52.692;6.226;2022-12-18T06:44:18;21.10;;;8.80;;
51738;SDS011;37815;52.692;6.226;2022-12-18T06:49:19;21.30;;;7.32;;
51738;SDS011;37815;52.692;6.226;2022-12-18T06:54:20;22.58;;;9.20;;
51738;SDS011;37815;52.692;6.226;2022-12-18T06:59:20;19.10;;;8.10;;
51738;SDS011;37815;52.692;6.226;2022-12-18T07:04:21;22.67;;;8.07;;
51738;SDS011;37815;52.692;6.226;2022-12-18T07:09:22;20.30;;;7.90;;
51738;SDS011;37815;52.692;6.226;2022-12-18T07:14:22;23.13;;;8.73;;
51738;SDS011;37815;52.692;6.226;2022-12-18T07:19:23;25.33;;;9.05;;
51738;SDS011;37815;52.692;6.226;2022-12-18T07:24:24;19.92;;;8.18;;
51738;SDS011;37815;52.692;6.226;2022-12-18T07:29:24;23.70;;;8.10;;
51738;SDS011;37815;52.692;6.226;2022-12-18T07:34:25;18.80;;;7.88;;
51738;SDS011;37815;52.692;6.226;2022-12-18T07:39:26;24.08;;;8.63;;
51738;SDS011;37815;52.692;6.226;2022-12-18T07:44:26;22.83;;;8.48;;
51738;SDS011;37815;52.692;6.226;2022-12-18T07:49:27;19.70;;;7.47;;
51738;SDS011;37815;52.692;6.226;2022-12-18T07:54:28;20.33;;;7.13;;
51738;SDS011;37815;52.692;6.226;2022-12-18T07:59:29;20.88;;;7.78;;
51738;SDS011;37815;52.692;6.226;2022-12-18T08:04:30;20.92;;;8.15;;
51738;SDS011;37815;52.692;6.226;2022-12-18T08:09:31;18.27;;;7.68;;
51738;SDS011;37815;52.692;6.226;2022-12-18T08:14:31;17.80;;;7.80;;
51738;SDS011;37815;52.692;6.226;2022-12-18T08:19:32;19.10;;;7.30;;
51738;SDS011;37815;52.692;6.226;2022-12-18T08:24:34;19.95;;;8.02;;
51738;SDS011;37815;52.692;6.226;2022-12-18T08:29:34;19.63;;;7.95;;
51738;SDS011;37815;52.692;6.226;2022-12-18T08:34:35;17.52;;;6.88;;
51738;SDS011;37815;52.692;6.226;2022-12-18T08:39:36;18.70;;;8.27;;
51738;SDS011;37815;52.692;6.226;2022-12-18T08:44:36;20.20;;;8.50;;
51738;SDS011;37815;52.692;6.226;2022-12-18T08:49:37;19.30;;;7.72;;
51738;SDS011;37815;52.692;6.226;2022-12-18T08:54:38;19.55;;;7.53;;
51738;SDS011;37815;52.692;6.226;2022-12-18T08:59:38;21.25;;;8.68;;
51738;SDS011;37815;52.692;6.226;2022-12-18T09:04:39;18.42;;;7.65;;
51738;SDS011;37815;52.692;6.226;2022-12-18T09:09:40;18.02;;;7.40;;
51738;SDS011;37815;52.692;6.226;2022-12-18T09:14:40;18.90;;;7.75;;
51738;SDS011;37815;52.692;6.226;2022-12-18T09:19:41;18.67;;;7.07;;
51738;SDS011;37815;52.692;6.226;2022-12-18T09:24:42;15.57;;;7.43;;
51738;SDS011;37815;52.692;6.226;2022-12-18T09:29:42;15.38;;;6.88;;
51738;SDS011;37815;52.692;6.226;2022-12-18T09:34:43;18.75;;;8.00;;
51738;SDS011;37815;52.692;6.226;2022-12-18T09:39:44;18.33;;;7.30;;
51738;SDS011;37815;52.692;6.226;2022-12-18T09:44:45;16.58;;;6.72;;
51738;SDS011;37815;52.692;6.226;2022-12-18T09:49:52;14.88;;;6.65;;
51738;SDS011;37815;52.692;6.226;2022-12-18T09:54:58;13.80;;;6.18;;
51738;SDS011;37815;52.692;6.226;2022-12-18T10:05:42;13.10;;;5.65;;
51738;SDS011;37815;52.692;6.226;2022-12-18T10:10:46;14.75;;;6.45;;
51738;SDS011;37815;52.692;6.226;2022-12-18T10:16:00;11.90;;;5.90;;
51738;SDS011;37815;52.692;6.226;2022-12-18T10:21:13;14.32;;;5.38;;
51738;SDS011;37815;52.692;6.226;2022-12-18T10:26:19;14.13;;;5.82;;
51738;SDS011;37815;52.692;6.226;2022-12-18T10:31:25;14.05;;;6.28;;
51738;SDS011;37815;52.692;6.226;2022-12-18T10:36:29;14.88;;;5.53;;
51738;SDS011;37815;52.692;6.226;2022-12-18T10:41:30;13.52;;;6.07;;
51738;SDS011;37815;52.692;6.226;2022-12-18T10:46:32;11.52;;;5.50;;
51738;SDS011;37815;52.692;6.226;2022-12-18T10:51:33;15.30;;;5.90;;
51738;SDS011;37815;52.692;6.226;2022-12-18T10:56:36;12.75;;;5.82;;
51738;SDS011;37815;52.692;6.226;2022-12-18T11:01:51;10.52;;;5.35;;
51738;SDS011;37815;52.692;6.226;2022-12-18T11:12:01;9.88;;;4.85;;
51738;SDS011;37815;52.692;6.226;2022-12-18T11:17:16;14.10;;;5.60;;
51738;SDS011;37815;52.692;6.226;2022-12-18T11:22:29;9.50;;;5.07;;
51738;SDS011;37815;52.692;6.226;2022-12-18T11:27:31;9.63;;;5.10;;
51738;SDS011;37815;52.692;6.226;2022-12-18T11:32:34;11.02;;;4.95;;
51738;SDS011;37815;52.692;6.226;2022-12-18T11:37:41;9.57;;;4.00;;
51738;SDS011;37815;52.692;6.226;2022-12-18T11:42:54;10.07;;;4.40;;
51738;SDS011;37815;52.692;6.226;2022-12-18T11:48:22;6.95;;;3.63;;
51738;SDS011;37815;52.692;6.226;2022-12-18T11:53:29;10.45;;;4.43;;
51738;SDS011;37815;52.692;6.226;2022-12-18T12:25:52;7.53;;;3.85;;
51738;SDS011;37815;52.692;6.226;2022-12-18T12:41:24;7.90;;;3.88;;
51738;SDS011;37815;52.692;6.226;2022-12-18T12:46:46;8.32;;;3.63;;
51738;SDS011;37815;52.692;6.226;2022-12-18T12:52:07;8.48;;;3.92;;
51738;SDS011;37815;52.692;6.226;2022-12-18T12:57:24;6.95;;;3.72;;
51738;SDS011;37815;52.692;6.226;2022-12-18T13:02:35;9.73;;;3.60;;
51738;SDS011;37815;52.692;6.226;2022-12-18T13:07:41;7.53;;;3.60;;
51738;SDS011;37815;52.692;6.226;2022-12-18T13:12:54;9.57;;;4.07;;
51738;SDS011;37815;52.692;6.226;2022-12-18T13:18:19;12.55;;;3.95;;
51738;SDS011;37815;52.692;6.226;2022-12-18T13:33:47;8.50;;;4.45;;
51738;SDS011;37815;52.692;6.226;2022-12-18T13:39:39;6.85;;;3.67;;
51738;SDS011;37815;52.692;6.226;2022-12-18T13:44:25;8.70;;;4.15;;
51738;SDS011;37815;52.692;6.226;2022-12-18T13:49:38;9.85;;;4.07;;
51738;SDS011;37815;52.692;6.226;2022-12-18T13:54:42;12.10;;;3.50;;
51738;SDS011;37815;52.692;6.226;2022-12-18T13:59:49;5.43;;;3.33;;
51738;SDS011;37815;52.692;6.226;2022-12-18T14:04:50;8.40;;;3.67;;
51738;SDS011;37815;52.692;6.226;2022-12-18T15:29:02;6.53;;;3.65;;
51738;SDS011;37815;52.692;6.226;2022-12-18T15:34:23;7.57;;;4.10;;
51738;SDS011;37815;52.692;6.226;2022-12-18T15:39:25;5.55;;;3.30;;
51738;SDS011;37815;52.692;6.226;2022-12-18T15:44:25;7.47;;;3.95;;
51738;SDS011;37815;52.692;6.226;2022-12-18T15:49:26;8.13;;;3.58;;
51738;SDS011;37815;52.692;6.226;2022-12-18T15:54:27;7.40;;;3.25;;
51738;SDS011;37815;52.692;6.226;2022-12-18T15:59:57;10.38;;;3.95;;
51738;SDS011;37815;52.692;6.226;2022-12-18T16:04:58;8.65;;;3.75;;
51738;SDS011;37815;52.692;6.226;2022-12-18T16:09:58;7.18;;;3.97;;
51738;SDS011;37815;52.692;6.226;2022-12-18T16:14:59;6.38;;;3.35;;
51738;SDS011;37815;52.692;6.226;2022-12-18T16:20:00;6.18;;;3.78;;
51738;SDS011;37815;52.692;6.226;2022-12-18T16:25:00;8.10;;;3.88;;
51738;SDS011;37815;52.692;6.226;2022-12-18T16:30:01;7.45;;;3.55;;
51738;SDS011;37815;52.692;6.226;2022-12-18T16:35:02;6.55;;;3.63;;
51738;SDS011;37815;52.692;6.226;2022-12-18T16:40:03;7.10;;;3.78;;
51738;SDS011;37815;52.692;6.226;2022-12-18T16:45:06;6.80;;;3.45;;
51738;SDS011;37815;52.692;6.226;2022-12-18T16:50:08;7.78;;;4.03;;
51738;SDS011;37815;52.692;6.226;2022-12-18T16:55:09;8.50;;;3.80;;
51738;SDS011;37815;52.692;6.226;2022-12-18T17:00:10;7.68;;;3.50;;
51738;SDS011;37815;52.692;6.226;2022-12-18T17:05:11;7.88;;;4.28;;
51738;SDS011;37815;52.692;6.226;2022-12-18T17:10:11;6.60;;;3.65;;
51738;SDS011;37815;52.692;6.226;2022-12-18T17:15:12;8.25;;;4.03;;
51738;SDS011;37815;52.692;6.226;2022-12-18T17:20:13;7.38;;;4.00;;
51738;SDS011;37815;52.692;6.226;2022-12-18T17:25:13;7.00;;;3.50;;
51738;SDS011;37815;52.692;6.226;2022-12-18T17:35:24;7.50;;;3.60;;
51738;SDS011;37815;52.692;6.226;2022-12-18T17:40:25;7.85;;;4.22;;
51738;SDS011;37815;52.692;6.226;2022-12-18T17:45:25;7.75;;;4.07;;
51738;SDS011;37815;52.692;6.226;2022-12-18T17:50:26;15.93;;;5.30;;
51738;SDS011;37815;52.692;6.226;2022-12-18T17:55:27;7.13;;;4.50;;
51738;SDS011;37815;52.692;6.226;2022-12-18T18:00:28;8.38;;;4.68;;
51738;SDS011;37815;52.692;6.226;2022-12-18T18:05:29;9.85;;;4.60;;
51738;SDS011;37815;52.692;6.226;2022-12-18T18:10:29;12.32;;;5.05;;
51738;SDS011;37815;52.692;6.226;2022-12-18T18:15:30;8.50;;;4.72;;
51738;SDS011;37815;52.692;6.226;2022-12-18T18:20:30;8.52;;;4.70;;
51738;SDS011;37815;52.692;6.226;2022-12-18T18:25:34;12.65;;;4.82;;
51738;SDS011;37815;52.692;6.226;2022-12-18T18:30:39;9.32;;;4.65;;
51738;SDS011;37815;52.692;6.226;2022-12-18T18:35:43;9.13;;;4.57;;
51738;SDS011;37815;52.692;6.226;2022-12-18T18:40:48;10.32;;;4.50;;
51738;SDS011;37815;52.692;6.226;2022-12-18T18:45:57;11.10;;;5.40;;
51738;SDS011;37815;52.692;6.226;2022-12-18T18:50:59;12.00;;;5.50;;
51738;SDS011;37815;52.692;6.226;2022-12-18T18:56:20;10.48;;;4.97;;
51738;SDS011;37815;52.692;6.226;2022-12-18T19:01:24;11.70;;;5.32;;
51738;SDS011;37815;52.692;6.226;2022-12-18T19:06:28;11.27;;;5.70;;
51738;SDS011;37815;52.692;6.226;2022-12-18T19:11:29;12.73;;;6.13;;
51738;SDS011;37815;52.692;6.226;2022-12-18T19:16:49;10.40;;;5.72;;
51738;SDS011;37815;52.692;6.226;2022-12-18T19:21:50;12.82;;;5.80;;
51738;SDS011;37815;52.692;6.226;2022-12-18T19:26:50;14.02;;;7.07;;
51738;SDS011;37815;52.692;6.226;2022-12-18T19:31:51;16.77;;;7.07;;
51738;SDS011;37815;52.692;6.226;2022-12-18T19:36:51;12.40;;;6.70;;
51738;SDS011;37815;52.692;6.226;2022-12-18T19:41:52;13.30;;;6.57;;
51738;SDS011;37815;52.692;6.226;2022-12-18T19:46:56;16.92;;;7.72;;
51738;SDS011;37815;52.692;6.226;2022-12-18T19:52:11;17.83;;;7.78;;
51738;SDS011;37815;52.692;6.226;2022-12-18T19:57:13;16.15;;;7.45;;
51738;SDS011;37815;52.692;6.226;2022-12-18T20:02:14;15.73;;;7.35;;
51738;SDS011;37815;52.692;6.226;2022-12-18T20:07:15;17.60;;;7.68;;
51738;SDS011;37815;52.692;6.226;2022-12-18T20:12:21;18.33;;;8.02;;
51738;SDS011;37815;52.692;6.226;2022-12-18T20:17:28;18.17;;;7.90;;
51738;SDS011;37815;52.692;6.226;2022-12-18T20:22:44;17.67;;;7.85;;
51738;SDS011;37815;52.692;6.226;2022-12-18T20:27:47;17.57;;;8.10;;
51738;SDS011;37815;52.692;6.226;2022-12-18T20:32:57;24.25;;;9.15;;
51738;SDS011;37815;52.692;6.226;2022-12-18T20:43:55;21.67;;;9.45;;
51738;SDS011;37815;52.692;6.226;2022-12-18T20:49:40;20.92;;;9.50;;
51738;SDS011;37815;52.692;6.226;2022-12-18T20:54:43;21.10;;;8.82;;
51738;SDS011;37815;52.692;6.226;2022-12-18T21:00:13;19.25;;;8.85;;
51738;SDS011;37815;52.692;6.226;2022-12-18T21:05:43;20.75;;;9.95;;
51738;SDS011;37815;52.692;6.226;2022-12-18T21:10:44;22.60;;;9.07;;
51738;SDS011;37815;52.692;6.226;2022-12-18T21:15:45;18.70;;;8.50;;
51738;SDS011;37815;52.692;6.226;2022-12-18T21:20:45;22.63;;;10.07;;
51738;SDS011;37815;52.692;6.226;2022-12-18T21:25:46;18.05;;;8.88;;
51738;SDS011;37815;52.692;6.226;2022-12-18T21:30:46;24.05;;;10.48;;
51738;SDS011;37815;52.692;6.226;2022-12-18T21:35:48;23.75;;;10.38;;
51738;SDS011;37815;52.692;6.226;2022-12-18T21:40:48;21.70;;;9.50;;
51738;SDS011;37815;52.692;6.226;2022-12-18T21:45:49;20.33;;;10.20;;
51738;SDS011;37815;52.692;6.226;2022-12-18T21:50:49;24.88;;;10.30;;
51738;SDS011;37815;52.692;6.226;2022-12-18T21:55:59;22.52;;;9.43;;
51738;SDS011;37815;52.692;6.226;2022-12-18T22:00:59;24.83;;;10.23;;
51738;SDS011;37815;52.692;6.226;2022-12-18T22:06:00;22.75;;;10.30;;
51738;SDS011;37815;52.692;6.226;2022-12-18T22:11:01;23.58;;;10.25;;
51738;SDS011;37815;52.692;6.226;2022-12-18T22:16:01;22.02;;;9.88;;
51738;SDS011;37815;52.692;6.226;2022-12-18T22:21:02;21.90;;;9.77;;
51738;SDS011;37815;52.692;6.226;2022-12-18T22:26:03;26.77;;;10.27;;
51738;SDS011;37815;52.692;6.226;2022-12-18T22:31:04;21.08;;;10.52;;
51738;SDS011;37815;52.692;6.226;2022-12-18T22:36:05;22.25;;;9.75;;
51738;SDS011;37815;52.692;6.226;2022-12-18T22:41:06;23.27;;;10.50;;
51738;SDS011;37815;52.692;6.226;2022-12-18T22:46:09;21.85;;;10.10;;
51738;SDS011;37815;52.692;6.226;2022-12-18T22:51:14;26.65;;;9.88;;
51738;SDS011;37815;52.692;6.226;2022-12-18T22:56:16;25.65;;;10.95;;
51738;SDS011;37815;52.692;6.226;2022-12-18T23:01:21;25.50;;;11.65;;
51738;SDS011;37815;52.692;6.226;2022-12-18T23:06:24;23.15;;;10.40;;
51738;SDS011;37815;52.692;6.226;2022-12-18T23:11:25;26.05;;;11.20;;
51738;SDS011;37815;52.692;6.226;2022-12-18T23:16:26;23.77;;;10.52;;
51738;SDS011;37815;52.692;6.226;2022-12-18T23:21:27;23.60;;;11.27;;
51738;SDS011;37815;52.692;6.226;2022-12-18T23:26:28;25.23;;;10.52;;
51738;SDS011;37815;52.692;6.226;2022-12-18T23:31:32;26.90;;;10.70;;
51738;SDS011;37815;52.692;6.226;2022-12-18T23:36:35;25.05;;;10.80;;
51738;SDS011;37815;52.692;6.226;2022-12-18T23:41:36;24.33;;;11.18;;
51738;SDS011;37815;52.692;6.226;2022-12-18T23:46:37;29.00;;;12.00;;
51738;SDS011;37815;52.692;6.226;2022-12-18T23:51:37;25.48;;;10.82;;
51738;SDS011;37815;52.692;6.226;2022-12-18T23:56:38;27.27;;;11.05;;
